createdAt,value
2023-04-23T00:00:56.388Z,0.00
2023-04-23T00:01:56.333Z,0.00
2023-04-23T00:02:56.359Z,0.00
2023-04-23T00:03:56.371Z,0.00
2023-04-23T00:04:56.417Z,0.00
2023-04-23T00:05:56.119Z,0.00
2023-04-23T00:06:56.074Z,0.00
2023-04-23T00:07:56.014Z,0.00
2023-04-23T00:08:55.958Z,0.00
2023-04-23T00:09:55.901Z,0.00
2023-04-23T00:10:55.856Z,0.00
2023-04-23T00:11:55.802Z,0.00
2023-04-23T00:12:56.922Z,0.00
2023-04-23T00:13:55.690Z,0.00
2023-04-23T00:14:55.643Z,0.00
2023-04-23T00:15:55.604Z,0.00
2023-04-23T00:16:55.533Z,0.00
2023-04-23T00:17:55.522Z,0.00
2023-04-23T00:18:55.434Z,0.00
2023-04-23T00:19:55.386Z,0.00
2023-04-23T00:20:55.321Z,0.00
2023-04-23T00:21:55.268Z,0.00
2023-04-23T00:22:55.222Z,0.00
2023-04-23T00:23:55.173Z,0.00
2023-04-23T00:24:55.118Z,0.00
2023-04-23T00:25:55.070Z,0.00
2023-04-23T00:26:55.000Z,0.00
2023-04-23T00:27:54.954Z,0.00
2023-04-23T00:28:54.895Z,0.00
2023-04-23T00:29:54.844Z,0.00
2023-04-23T00:30:54.800Z,0.00
2023-04-23T00:31:54.774Z,0.00
2023-04-23T00:32:54.729Z,0.00
2023-04-23T00:33:54.694Z,0.00
2023-04-23T00:34:54.580Z,0.00
2023-04-23T00:35:54.518Z,0.00
2023-04-23T00:36:54.468Z,0.00
2023-04-23T00:37:54.427Z,0.00
2023-04-23T00:38:54.371Z,0.00
2023-04-23T00:39:54.307Z,0.00
2023-04-23T00:40:54.275Z,0.00
2023-04-23T00:41:54.202Z,0.00
2023-04-23T00:42:54.161Z,0.00
2023-04-23T00:43:54.096Z,0.00
2023-04-23T00:44:54.056Z,0.00
2023-04-23T00:45:54.046Z,0.00
2023-04-23T00:46:53.937Z,0.00
2023-04-23T00:47:53.911Z,0.00
2023-04-23T00:48:53.828Z,0.00
2023-04-23T00:49:53.774Z,0.00
2023-04-23T00:50:53.726Z,0.00
2023-04-23T00:51:53.671Z,0.00
2023-04-23T00:52:53.620Z,0.00
2023-04-23T00:53:53.574Z,0.00
2023-04-23T00:54:53.518Z,0.00
2023-04-23T00:55:53.459Z,0.00
2023-04-23T00:56:53.411Z,0.00
2023-04-23T00:57:53.354Z,0.00
2023-04-23T00:58:53.298Z,0.00
2023-04-23T00:59:53.248Z,0.00
2023-04-23T01:00:53.221Z,0.00
2023-04-23T01:01:53.143Z,0.00
2023-04-23T01:02:53.470Z,0.00
2023-04-23T01:03:53.543Z,0.00
2023-04-23T01:04:52.995Z,0.00
2023-04-23T01:05:52.931Z,0.00
2023-04-23T01:06:52.871Z,0.00
2023-04-23T01:07:52.818Z,0.00
2023-04-23T01:08:52.777Z,0.00
2023-04-23T01:09:52.726Z,0.00
2023-04-23T01:10:52.665Z,0.00
2023-04-23T01:11:52.614Z,0.00
2023-04-23T01:12:52.557Z,0.00
2023-04-23T01:13:52.507Z,0.00
2023-04-23T01:14:52.450Z,0.00
2023-04-23T01:15:52.411Z,0.00
2023-04-23T01:16:52.371Z,0.00
2023-04-23T01:17:52.310Z,0.00
2023-04-23T01:18:52.238Z,0.00
2023-04-23T01:19:52.182Z,0.00
2023-04-23T01:20:52.124Z,0.00
2023-04-23T01:21:52.077Z,0.00
2023-04-23T01:22:52.041Z,0.00
2023-04-23T01:23:51.977Z,0.00
2023-04-23T01:24:51.916Z,0.00
2023-04-23T01:25:51.861Z,0.00
2023-04-23T01:26:51.896Z,0.00
2023-04-23T01:27:51.757Z,0.00
2023-04-23T01:28:51.706Z,0.00
2023-04-23T01:29:51.650Z,0.00
2023-04-23T01:30:51.614Z,0.00
2023-04-23T01:31:51.547Z,0.00
2023-04-23T01:32:51.543Z,0.00
2023-04-23T01:33:51.444Z,0.00
2023-04-23T01:34:51.393Z,0.00
2023-04-23T01:35:51.335Z,0.00
2023-04-23T01:36:51.279Z,0.00
2023-04-23T01:37:51.224Z,0.00
2023-04-23T01:38:51.168Z,0.00
2023-04-23T01:39:51.114Z,0.00
2023-04-23T01:40:51.067Z,0.00
2023-04-23T01:41:51.011Z,0.00
2023-04-23T01:42:50.967Z,0.00
2023-04-23T01:43:50.910Z,0.00
2023-04-23T01:44:50.844Z,0.00
2023-04-23T01:45:50.829Z,0.00
2023-04-23T01:46:50.751Z,0.00
2023-04-23T01:47:50.743Z,0.00
2023-04-23T01:48:50.631Z,0.00
2023-04-23T01:49:50.595Z,0.00
2023-04-23T01:50:50.533Z,0.00
2023-04-23T01:51:50.475Z,0.00
2023-04-23T01:52:50.441Z,0.00
2023-04-23T01:53:50.366Z,0.00
2023-04-23T01:54:50.317Z,0.00
2023-04-23T01:55:50.273Z,0.00
2023-04-23T01:56:50.209Z,0.00
2023-04-23T01:57:50.150Z,0.00
2023-04-23T01:58:50.109Z,0.00
2023-04-23T01:59:50.043Z,0.00
2023-04-23T02:00:49.989Z,0.00
2023-04-23T02:01:50.019Z,0.00
2023-04-23T02:02:50.032Z,0.00
2023-04-23T02:03:49.906Z,0.00
2023-04-23T02:04:49.780Z,0.00
2023-04-23T02:05:49.725Z,0.00
2023-04-23T02:06:49.687Z,0.00
2023-04-23T02:07:49.617Z,0.00
2023-04-23T02:08:49.573Z,0.00
2023-04-23T02:09:49.508Z,0.00
2023-04-23T02:10:49.455Z,0.00
2023-04-23T02:11:49.409Z,0.00
2023-04-23T02:12:49.359Z,0.00
2023-04-23T02:13:49.295Z,0.00
2023-04-23T02:14:49.256Z,0.00
2023-04-23T02:15:49.261Z,0.00
2023-04-23T02:16:49.143Z,0.00
2023-04-23T02:17:49.142Z,0.00
2023-04-23T02:18:49.051Z,0.00
2023-04-23T02:19:48.980Z,0.00
2023-04-23T02:20:48.939Z,0.00
2023-04-23T02:21:48.877Z,0.00
2023-04-23T02:22:48.824Z,0.00
2023-04-23T02:23:48.764Z,0.00
2023-04-23T02:24:48.719Z,0.00
2023-04-23T02:25:48.661Z,0.00
2023-04-23T02:26:48.610Z,0.00
2023-04-23T02:27:48.553Z,0.00
2023-04-23T02:28:48.503Z,0.00
2023-04-23T02:29:48.446Z,0.00
2023-04-23T02:30:48.401Z,0.00
2023-04-23T02:31:48.406Z,0.00
2023-04-23T02:32:48.313Z,0.00
2023-04-23T02:33:48.237Z,0.00
2023-04-23T02:34:48.180Z,0.00
2023-04-23T02:35:48.126Z,0.00
2023-04-23T02:36:48.069Z,0.00
2023-04-23T02:37:48.025Z,0.00
2023-04-23T02:38:47.970Z,0.00
2023-04-23T02:39:47.916Z,0.00
2023-04-23T02:40:47.897Z,0.00
2023-04-23T02:41:47.804Z,0.00
2023-04-23T02:42:47.757Z,0.00
2023-04-23T02:43:47.702Z,0.00
2023-04-23T02:44:47.661Z,0.00
2023-04-23T02:45:47.594Z,0.00
2023-04-23T02:46:47.560Z,0.00
2023-04-23T02:47:47.509Z,0.00
2023-04-23T02:48:47.429Z,0.00
2023-04-23T02:49:47.404Z,0.00
2023-04-23T02:50:47.330Z,0.00
2023-04-23T02:51:47.268Z,0.00
2023-04-23T02:52:47.215Z,0.00
2023-04-23T02:53:47.164Z,0.00
2023-04-23T02:54:47.108Z,0.00
2023-04-23T02:55:47.057Z,0.00
2023-04-23T02:56:47.007Z,0.00
2023-04-23T02:57:46.946Z,0.00
2023-04-23T02:58:46.894Z,0.00
2023-04-23T02:59:46.840Z,0.00
2023-04-23T03:00:46.843Z,0.00
2023-04-23T03:01:46.735Z,0.00
2023-04-23T03:02:46.853Z,0.00
2023-04-23T03:03:46.730Z,0.00
2023-04-23T03:04:46.574Z,0.00
2023-04-23T03:05:46.530Z,0.00
2023-04-23T03:06:46.461Z,0.00
2023-04-23T03:07:46.405Z,0.00
2023-04-23T03:08:46.354Z,0.00
2023-04-23T03:09:46.307Z,0.00
2023-04-23T03:10:46.247Z,0.00
2023-04-23T03:11:46.196Z,0.00
2023-04-23T03:12:46.149Z,0.00
2023-04-23T03:13:46.090Z,0.00
2023-04-23T03:14:46.034Z,0.00
2023-04-23T03:15:45.983Z,0.00
2023-04-23T03:16:46.042Z,0.00
2023-04-23T03:17:45.908Z,0.00
2023-04-23T03:18:45.823Z,0.00
2023-04-23T03:19:45.772Z,0.00
2023-04-23T03:20:45.714Z,0.00
2023-04-23T03:21:45.656Z,0.00
2023-04-23T03:22:45.607Z,0.00
2023-04-23T03:23:45.554Z,0.00
2023-04-23T03:24:45.499Z,0.00
2023-04-23T03:25:45.456Z,0.00
2023-04-23T03:26:45.392Z,0.00
2023-04-23T03:27:45.337Z,0.00
2023-04-23T03:28:45.281Z,0.00
2023-04-23T03:29:45.236Z,0.00
2023-04-23T03:30:45.211Z,0.00
2023-04-23T03:31:45.124Z,0.00
2023-04-23T03:32:45.091Z,0.00
2023-04-23T03:33:45.021Z,0.00
2023-04-23T03:34:44.971Z,0.00
2023-04-23T03:35:44.912Z,0.00
2023-04-23T03:36:44.855Z,0.00
2023-04-23T03:37:44.803Z,0.00
2023-04-23T03:38:44.747Z,0.00
2023-04-23T03:39:44.699Z,0.00
2023-04-23T03:40:44.643Z,0.00
2023-04-23T03:41:44.590Z,0.00
2023-04-23T03:42:44.537Z,0.00
2023-04-23T03:43:44.486Z,0.00
2023-04-23T03:44:44.429Z,0.00
2023-04-23T03:45:44.419Z,0.00
2023-04-23T03:46:44.324Z,0.00
2023-04-23T03:47:44.325Z,0.00
2023-04-23T03:48:44.216Z,0.00
2023-04-23T03:49:44.160Z,0.00
2023-04-23T03:50:44.129Z,0.00
2023-04-23T03:51:44.048Z,0.00
2023-04-23T03:52:44.009Z,0.00
2023-04-23T03:53:43.944Z,0.00
2023-04-23T03:54:44.026Z,0.00
2023-04-23T03:55:43.865Z,0.00
2023-04-23T03:56:43.787Z,0.00
2023-04-23T03:57:43.731Z,0.00
2023-04-23T03:58:43.676Z,0.00
2023-04-23T03:59:43.629Z,0.00
2023-04-23T04:00:43.574Z,0.00
2023-04-23T04:01:43.521Z,0.00
2023-04-23T04:02:43.572Z,0.00
2023-04-23T04:03:43.601Z,0.00
2023-04-23T04:04:43.680Z,0.00
2023-04-23T04:05:43.341Z,0.00
2023-04-23T04:06:43.260Z,0.00
2023-04-23T04:07:43.203Z,0.00
2023-04-23T04:08:43.180Z,0.00
2023-04-23T04:09:43.094Z,0.00
2023-04-23T04:10:43.036Z,0.00
2023-04-23T04:11:43.006Z,0.00
2023-04-23T04:12:42.927Z,0.00
2023-04-23T04:13:42.880Z,0.00
2023-04-23T04:14:42.968Z,0.00
2023-04-23T04:15:42.838Z,0.00
2023-04-23T04:16:42.712Z,0.00
2023-04-23T04:17:42.694Z,0.00
2023-04-23T04:18:42.605Z,0.00
2023-04-23T04:19:42.555Z,0.00
2023-04-23T04:20:42.505Z,0.00
2023-04-23T04:21:42.446Z,0.00
2023-04-23T04:22:42.419Z,0.00
2023-04-23T04:23:42.344Z,0.00
2023-04-23T04:24:42.676Z,0.00
2023-04-23T04:25:42.245Z,0.00
2023-04-23T04:26:42.179Z,0.00
2023-04-23T04:27:42.128Z,0.00
2023-04-23T04:28:42.074Z,0.00
2023-04-23T04:29:42.020Z,0.00
2023-04-23T04:30:41.965Z,0.00
2023-04-23T04:31:41.933Z,0.00
2023-04-23T04:32:41.917Z,0.00
2023-04-23T04:33:41.800Z,0.00
2023-04-23T04:34:42.204Z,0.00
2023-04-23T04:35:41.692Z,0.00
2023-04-23T04:36:41.635Z,0.00
2023-04-23T04:37:41.585Z,0.00
2023-04-23T04:38:41.541Z,0.00
2023-04-23T04:39:41.479Z,0.00
2023-04-23T04:40:41.425Z,0.00
2023-04-23T04:41:41.373Z,0.00
2023-04-23T04:42:41.319Z,0.00
2023-04-23T04:43:41.268Z,0.00
2023-04-23T04:44:41.449Z,0.00
2023-04-23T04:45:41.157Z,0.00
2023-04-23T04:46:41.132Z,0.00
2023-04-23T04:47:41.097Z,0.00
2023-04-23T04:48:41.009Z,0.00
2023-04-23T04:49:40.942Z,0.00
2023-04-23T04:50:40.943Z,0.00
2023-04-23T04:51:40.833Z,0.00
2023-04-23T04:52:40.779Z,0.00
2023-04-23T04:53:40.731Z,0.00
2023-04-23T04:54:40.878Z,0.00
2023-04-23T04:55:40.623Z,0.00
2023-04-23T04:56:40.582Z,0.00
2023-04-23T04:57:40.507Z,0.00
2023-04-23T04:58:40.459Z,0.00
2023-04-23T04:59:40.553Z,0.00
2023-04-23T05:00:40.350Z,0.00
2023-04-23T05:01:40.293Z,0.00
2023-04-23T05:02:40.307Z,0.00
2023-04-23T05:03:40.343Z,0.00
2023-04-23T05:04:40.479Z,0.00
2023-04-23T05:05:40.087Z,0.00
2023-04-23T05:06:40.024Z,0.00
2023-04-23T05:07:39.973Z,0.00
2023-04-23T05:08:39.918Z,0.00
2023-04-23T05:09:39.867Z,0.00
2023-04-23T05:10:39.817Z,0.00
2023-04-23T05:11:39.760Z,0.00
2023-04-23T05:12:39.698Z,0.00
2023-04-23T05:13:39.648Z,0.00
2023-04-23T05:14:40.097Z,0.00
2023-04-23T05:15:39.544Z,0.00
2023-04-23T05:16:39.539Z,0.00
2023-04-23T05:17:39.504Z,0.00
2023-04-23T05:18:39.379Z,0.00
2023-04-23T05:19:39.328Z,0.00
2023-04-23T05:20:39.333Z,0.00
2023-04-23T05:21:39.723Z,0.00
2023-04-23T05:22:39.172Z,0.00
2023-04-23T05:23:39.139Z,0.00
2023-04-23T05:24:39.306Z,0.00
2023-04-23T05:25:39.009Z,0.00
2023-04-23T05:26:38.957Z,0.00
2023-04-23T05:27:38.904Z,0.00
2023-04-23T05:28:38.842Z,4.00
2023-04-23T05:29:38.795Z,4.00
2023-04-23T05:30:38.735Z,4.00
2023-04-23T05:31:38.687Z,0.00
2023-04-23T05:32:38.740Z,0.00
2023-04-23T05:33:49.236Z,0.00
2023-04-23T05:34:38.672Z,0.00
2023-04-23T05:35:38.467Z,0.00
2023-04-23T05:36:38.409Z,4.00
2023-04-23T05:37:38.356Z,4.00
2023-04-23T05:38:38.299Z,4.00
2023-04-23T05:39:38.245Z,4.00
2023-04-23T05:40:38.191Z,4.00
2023-04-23T05:41:38.140Z,4.00
2023-04-23T05:42:38.086Z,4.00
2023-04-23T05:43:38.027Z,4.00
2023-04-23T05:44:38.014Z,4.00
2023-04-23T05:45:37.919Z,4.00
2023-04-23T05:46:37.937Z,4.00
2023-04-23T05:47:38.019Z,0.00
2023-04-23T05:48:37.757Z,0.00
2023-04-23T05:49:37.704Z,4.00
2023-04-23T05:50:37.670Z,4.00
2023-04-23T05:51:37.600Z,0.00
2023-04-23T05:52:37.752Z,4.00
2023-04-23T05:53:37.483Z,4.00
2023-04-23T05:54:37.431Z,4.00
2023-04-23T05:55:37.384Z,4.00
2023-04-23T05:56:37.321Z,4.00
2023-04-23T05:57:37.276Z,4.00
2023-04-23T05:58:37.220Z,4.00
2023-04-23T05:59:37.174Z,4.00
2023-04-23T06:00:37.113Z,4.00
2023-04-23T06:01:37.064Z,4.00
2023-04-23T06:02:37.112Z,0.00
2023-04-23T06:03:37.179Z,0.00
2023-04-23T06:04:37.119Z,0.00
2023-04-23T06:05:36.881Z,0.00
2023-04-23T06:06:36.789Z,0.00
2023-04-23T06:07:36.734Z,0.00
2023-04-23T06:08:36.694Z,0.00
2023-04-23T06:09:36.618Z,0.00
2023-04-23T06:10:36.575Z,0.00
2023-04-23T06:11:36.514Z,0.00
2023-04-23T06:12:36.477Z,4.00
2023-04-23T06:13:36.413Z,4.00
2023-04-23T06:14:36.359Z,0.00
2023-04-23T06:15:36.300Z,4.00
2023-04-23T06:16:36.243Z,4.00
2023-04-23T06:17:36.273Z,4.00
2023-04-23T06:18:36.132Z,4.00
2023-04-23T06:19:36.113Z,4.00
2023-04-23T06:20:36.025Z,4.00
2023-04-23T06:21:35.977Z,4.00
2023-04-23T06:22:35.919Z,4.00
2023-04-23T06:23:35.864Z,4.00
2023-04-23T06:24:35.806Z,4.00
2023-04-23T06:25:35.761Z,0.00
2023-04-23T06:26:35.706Z,0.00
2023-04-23T06:27:35.645Z,0.00
2023-04-23T06:28:35.594Z,0.00
2023-04-23T06:29:35.540Z,4.00
2023-04-23T06:30:35.503Z,0.00
2023-04-23T06:31:35.530Z,4.00
2023-04-23T06:32:35.392Z,4.00
2023-04-23T06:33:35.330Z,0.00
2023-04-23T06:34:35.265Z,4.00
2023-04-23T06:35:35.215Z,4.00
2023-04-23T06:36:35.172Z,4.00
2023-04-23T06:37:35.112Z,4.00
2023-04-23T06:38:35.051Z,0.00
2023-04-23T06:39:34.997Z,0.00
2023-04-23T06:40:34.966Z,0.00
2023-04-23T06:41:34.905Z,4.00
2023-04-23T06:42:34.848Z,4.00
2023-04-23T06:43:34.790Z,4.00
2023-04-23T06:44:34.732Z,4.00
2023-04-23T06:45:34.687Z,4.00
2023-04-23T06:46:34.667Z,4.00
2023-04-23T06:47:34.724Z,8.00
2023-04-23T06:48:34.510Z,4.00
2023-04-23T06:49:34.459Z,8.00
2023-04-23T06:50:34.399Z,4.00
2023-04-23T06:51:34.349Z,4.00
2023-04-23T06:52:34.295Z,8.00
2023-04-23T06:53:34.239Z,8.00
2023-04-23T06:54:34.188Z,8.00
2023-04-23T06:55:34.132Z,8.00
2023-04-23T06:56:34.077Z,8.00
2023-04-23T06:57:34.036Z,8.00
2023-04-23T06:58:33.965Z,4.00
2023-04-23T06:59:33.939Z,4.00
2023-04-23T07:00:33.885Z,8.00
2023-04-23T07:01:33.809Z,8.00
2023-04-23T07:02:33.835Z,8.00
2023-04-23T07:03:33.757Z,8.00
2023-04-23T07:04:33.720Z,4.00
2023-04-23T07:05:33.608Z,8.00
2023-04-23T07:06:33.547Z,8.00
2023-04-23T07:07:33.505Z,8.00
2023-04-23T07:08:33.441Z,8.00
2023-04-23T07:09:33.395Z,4.00
2023-04-23T07:10:33.335Z,8.00
2023-04-23T07:11:33.285Z,8.00
2023-04-23T07:12:33.235Z,8.00
2023-04-23T07:13:33.182Z,8.00
2023-04-23T07:14:33.125Z,8.00
2023-04-23T07:15:33.127Z,8.00
2023-04-23T07:16:33.047Z,8.00
2023-04-23T07:17:32.994Z,8.00
2023-04-23T07:18:32.917Z,8.00
2023-04-23T07:19:32.866Z,8.00
2023-04-23T07:20:32.859Z,8.00
2023-04-23T07:21:32.752Z,8.00
2023-04-23T07:22:32.693Z,8.00
2023-04-23T07:23:32.651Z,8.00
2023-04-23T07:24:32.604Z,8.00
2023-04-23T07:25:32.535Z,4.00
2023-04-23T07:26:32.481Z,8.00
2023-04-23T07:27:32.428Z,8.00
2023-04-23T07:28:32.384Z,8.00
2023-04-23T07:29:32.324Z,4.00
2023-04-23T07:30:32.265Z,8.00
2023-04-23T07:31:32.313Z,4.00
2023-04-23T07:32:32.202Z,4.00
2023-04-23T07:33:32.378Z,4.00
2023-04-23T07:34:32.064Z,4.00
2023-04-23T07:35:32.003Z,8.00
2023-04-23T07:36:31.949Z,4.00
2023-04-23T07:37:31.893Z,8.00
2023-04-23T07:38:31.842Z,8.00
2023-04-23T07:39:31.788Z,8.00
2023-04-23T07:40:31.730Z,8.00
2023-04-23T07:41:31.675Z,4.00
2023-04-23T07:42:31.618Z,4.00
2023-04-23T07:43:31.569Z,8.00
2023-04-23T07:44:31.512Z,8.00
2023-04-23T07:45:31.511Z,8.00
2023-04-23T07:46:31.550Z,8.00
2023-04-23T07:47:31.358Z,4.00
2023-04-23T07:48:31.292Z,4.00
2023-04-23T07:49:31.236Z,4.00
2023-04-23T07:50:31.195Z,4.00
2023-04-23T07:51:31.137Z,4.00
2023-04-23T07:52:31.081Z,4.00
2023-04-23T07:53:31.030Z,4.00
2023-04-23T07:54:30.978Z,4.00
2023-04-23T07:55:30.933Z,4.00
2023-04-23T07:56:30.870Z,0.00
2023-04-23T07:57:30.810Z,0.00
2023-04-23T07:58:30.755Z,0.00
2023-04-23T07:59:30.705Z,0.00
2023-04-23T08:00:30.650Z,0.00
2023-04-23T08:01:30.596Z,0.00
2023-04-23T08:02:30.689Z,4.00
2023-04-23T08:03:30.598Z,4.00
2023-04-23T08:04:30.729Z,4.00
2023-04-23T08:05:30.423Z,4.00
2023-04-23T08:06:30.333Z,8.00
2023-04-23T08:07:30.272Z,8.00
2023-04-23T08:08:30.216Z,8.00
2023-04-23T08:09:30.247Z,12.00
2023-04-23T08:10:30.133Z,12.00
2023-04-23T08:11:30.057Z,12.00
2023-04-23T08:12:29.996Z,12.00
2023-04-23T08:13:29.941Z,20.00
2023-04-23T08:14:29.891Z,16.00
2023-04-23T08:15:29.839Z,20.00
2023-04-23T08:16:30.881Z,16.00
2023-04-23T08:17:29.775Z,12.00
2023-04-23T08:18:29.674Z,12.00
2023-04-23T08:19:29.614Z,12.00
2023-04-23T08:20:29.575Z,12.00
2023-04-23T08:21:29.519Z,8.00
2023-04-23T08:22:29.497Z,8.00
2023-04-23T08:23:29.410Z,8.00
2023-04-23T08:24:29.351Z,4.00
2023-04-23T08:25:29.293Z,4.00
2023-04-23T08:26:29.246Z,4.00
2023-04-23T08:27:29.193Z,0.00
2023-04-23T08:28:29.133Z,4.00
2023-04-23T08:29:29.079Z,4.00
2023-04-23T08:30:29.026Z,0.00
2023-04-23T08:31:29.002Z,0.00
2023-04-23T08:32:28.941Z,0.00
2023-04-23T08:33:28.891Z,0.00
2023-04-23T08:34:28.808Z,0.00
2023-04-23T08:35:28.761Z,0.00
2023-04-23T08:36:28.709Z,0.00
2023-04-23T08:37:31.143Z,4.00
2023-04-23T08:38:28.595Z,4.00
2023-04-23T08:39:28.538Z,4.00
2023-04-23T08:40:28.482Z,4.00
2023-04-23T08:41:28.430Z,4.00
2023-04-23T08:42:28.379Z,4.00
2023-04-23T08:43:28.320Z,4.00
2023-04-23T08:44:28.269Z,4.00
2023-04-23T08:45:28.221Z,0.00
2023-04-23T08:46:28.185Z,0.00
2023-04-23T08:47:28.127Z,0.00
2023-04-23T08:48:28.051Z,0.00
2023-04-23T08:49:27.997Z,0.00
2023-04-23T08:50:27.940Z,4.00
2023-04-23T08:51:27.886Z,0.00
2023-04-23T08:52:27.836Z,0.00
2023-04-23T08:53:27.784Z,0.00
2023-04-23T08:54:27.810Z,4.00
2023-04-23T08:55:27.695Z,4.00
2023-04-23T08:56:27.620Z,4.00
2023-04-23T08:57:27.565Z,4.00
2023-04-23T08:58:27.516Z,4.00
2023-04-23T08:59:27.463Z,4.00
2023-04-23T09:00:27.429Z,4.00
2023-04-23T09:01:27.350Z,0.00
2023-04-23T09:02:27.434Z,4.00
2023-04-23T09:03:27.270Z,8.00
2023-04-23T09:04:27.185Z,8.00
2023-04-23T09:05:27.138Z,4.00
2023-04-23T09:06:27.086Z,4.00
2023-04-23T09:07:27.027Z,4.00
2023-04-23T09:08:26.975Z,4.00
2023-04-23T09:09:26.937Z,8.00
2023-04-23T09:10:26.879Z,4.00
2023-04-23T09:11:26.808Z,8.00
2023-04-23T09:12:26.758Z,8.00
2023-04-23T09:13:26.700Z,12.00
2023-04-23T09:14:26.644Z,12.00
2023-04-23T09:15:26.592Z,12.00
2023-04-23T09:16:26.563Z,12.00
2023-04-23T09:17:26.493Z,16.00
2023-04-23T09:18:26.441Z,12.00
2023-04-23T09:19:26.376Z,20.00
2023-04-23T09:20:26.332Z,16.00
2023-04-23T09:21:26.270Z,16.00
2023-04-23T09:22:26.217Z,16.00
2023-04-23T09:23:26.164Z,16.00
2023-04-23T09:24:26.120Z,20.00
2023-04-23T09:25:26.056Z,16.00
2023-04-23T09:26:26.012Z,20.00
2023-04-23T09:27:25.982Z,16.00
2023-04-23T09:28:25.894Z,16.00
2023-04-23T09:29:25.837Z,16.00
2023-04-23T09:30:25.800Z,12.00
2023-04-23T09:31:25.780Z,12.00
2023-04-23T09:32:25.703Z,12.00
2023-04-23T09:33:25.625Z,12.00
2023-04-23T09:34:25.570Z,12.00
2023-04-23T09:35:25.515Z,16.00
2023-04-23T09:36:25.463Z,16.00
2023-04-23T09:37:25.407Z,8.00
2023-04-23T09:38:25.355Z,8.00
2023-04-23T09:39:25.305Z,12.00
2023-04-23T09:40:25.247Z,12.00
2023-04-23T09:41:25.204Z,16.00
2023-04-23T09:42:25.154Z,20.00
2023-04-23T09:43:25.087Z,20.00
2023-04-23T09:44:25.031Z,20.00
2023-04-23T09:45:24.988Z,20.00
2023-04-23T09:46:24.957Z,16.00
2023-04-23T09:47:25.242Z,16.00
2023-04-23T09:48:24.812Z,16.00
2023-04-23T09:49:24.756Z,16.00
2023-04-23T09:50:24.705Z,16.00
2023-04-23T09:51:24.662Z,16.00
2023-04-23T09:52:24.609Z,16.00
2023-04-23T09:53:24.541Z,16.00
2023-04-23T09:54:24.490Z,16.00
2023-04-23T09:55:24.433Z,16.00
2023-04-23T09:56:24.384Z,16.00
2023-04-23T09:57:24.325Z,16.00
2023-04-23T09:58:24.280Z,16.00
2023-04-23T09:59:47.098Z,20.00
2023-04-23T10:00:24.176Z,24.00
2023-04-23T10:01:24.132Z,24.00
2023-04-23T10:02:24.158Z,24.00
2023-04-23T10:03:24.118Z,24.00
2023-04-23T10:04:24.178Z,20.00
2023-04-23T10:05:27.213Z,24.00
2023-04-23T10:06:40.749Z,20.00
2023-04-23T10:07:23.788Z,24.00
2023-04-23T10:08:23.726Z,20.00
2023-04-23T10:09:23.676Z,24.00
2023-04-23T10:10:23.640Z,20.00
2023-04-23T10:11:23.563Z,20.00
2023-04-23T10:13:23.465Z,24.00
2023-04-23T10:14:23.410Z,24.00
2023-04-23T10:15:23.355Z,24.00
2023-04-23T10:16:26.864Z,24.00
2023-04-23T10:17:23.287Z,24.00
2023-04-23T10:18:23.193Z,16.00
2023-04-23T10:19:23.132Z,24.00
2023-04-23T10:20:23.079Z,24.00
2023-04-23T10:21:23.063Z,20.00
2023-04-23T10:22:23.059Z,20.00
2023-04-23T10:23:22.920Z,24.00
2023-04-23T10:24:22.868Z,28.00
2023-04-23T10:25:22.810Z,24.00
2023-04-23T10:26:22.764Z,24.00
2023-04-23T10:28:22.658Z,24.00
2023-04-23T10:29:22.602Z,24.00
2023-04-23T10:30:22.833Z,20.00
2023-04-23T10:31:22.521Z,24.00
2023-04-23T10:32:22.445Z,20.00
2023-04-23T10:33:30.690Z,20.00
2023-04-23T10:34:22.338Z,20.00
2023-04-23T10:35:22.281Z,20.00
2023-04-23T10:36:22.217Z,20.00
2023-04-23T10:37:22.160Z,20.00
2023-04-23T10:38:22.113Z,24.00
2023-04-23T10:39:29.879Z,28.00
2023-04-23T10:40:22.135Z,24.00
2023-04-23T10:41:21.948Z,24.00
2023-04-23T10:42:21.895Z,28.00
2023-04-23T10:43:21.844Z,20.00
2023-04-23T10:44:44.928Z,16.00
2023-04-23T10:45:24.859Z,16.00
2023-04-23T10:46:21.713Z,16.00
2023-04-23T10:47:21.684Z,16.00
2023-04-23T10:48:21.603Z,16.00
2023-04-23T10:49:21.522Z,12.00
2023-04-23T10:50:22.462Z,12.00
2023-04-23T10:52:22.978Z,8.00
2023-04-23T10:53:21.305Z,12.00
2023-04-23T10:54:21.271Z,12.00
2023-04-23T10:55:21.202Z,12.00
2023-04-23T10:56:21.159Z,16.00
2023-04-23T10:57:21.817Z,16.00
2023-04-23T10:58:21.028Z,16.00
2023-04-23T10:59:20.997Z,16.00
2023-04-23T11:00:20.930Z,20.00
2023-04-23T11:01:20.916Z,20.00
2023-04-23T11:02:20.945Z,16.00
2023-04-23T11:03:20.815Z,20.00
2023-04-23T11:04:20.851Z,20.00
2023-04-23T11:05:20.652Z,16.00
2023-04-23T11:06:20.623Z,16.00
2023-04-23T11:07:20.557Z,16.00
2023-04-23T11:08:20.505Z,16.00
2023-04-23T11:09:20.434Z,16.00
2023-04-23T11:10:20.388Z,20.00
2023-04-23T11:11:20.325Z,16.00
2023-04-23T11:12:20.278Z,20.00
2023-04-23T11:13:20.219Z,16.00
2023-04-23T11:14:20.169Z,16.00
2023-04-23T11:15:20.116Z,36.00
2023-04-23T11:16:20.095Z,36.00
2023-04-23T11:17:20.005Z,16.00
2023-04-23T11:18:19.959Z,16.00
2023-04-23T11:19:20.838Z,16.00
2023-04-23T11:20:19.854Z,12.00
2023-04-23T11:21:19.798Z,16.00
2023-04-23T11:22:19.752Z,16.00
2023-04-23T11:23:19.682Z,12.00
2023-04-23T11:24:19.632Z,12.00
2023-04-23T11:25:19.573Z,12.00
2023-04-23T11:26:19.536Z,16.00
2023-04-23T11:27:19.471Z,16.00
2023-04-23T11:28:19.415Z,16.00
2023-04-23T11:29:19.357Z,20.00
2023-04-23T11:30:19.336Z,20.00
2023-04-23T11:31:19.313Z,256.00
2023-04-23T11:32:19.318Z,64.00
2023-04-23T11:33:19.188Z,136.00
2023-04-23T11:34:19.098Z,260.00
2023-04-23T11:35:19.033Z,216.00
2023-04-23T11:36:18.995Z,76.00
2023-04-23T11:37:18.928Z,128.00
2023-04-23T11:38:18.878Z,108.00
2023-04-23T11:39:18.826Z,92.00
2023-04-23T11:40:18.774Z,20.00
2023-04-23T11:41:19.955Z,20.00
2023-04-23T11:42:18.659Z,20.00
2023-04-23T11:43:18.619Z,52.00
2023-04-23T11:44:18.555Z,24.00
2023-04-23T11:45:18.501Z,16.00
2023-04-23T11:46:18.456Z,12.00
2023-04-23T11:47:18.397Z,12.00
2023-04-23T11:48:18.338Z,12.00
2023-04-23T11:49:18.285Z,12.00
2023-04-23T11:50:18.236Z,44.00
2023-04-23T11:51:18.176Z,12.00
2023-04-23T11:52:18.124Z,12.00
2023-04-23T11:53:18.181Z,16.00
2023-04-23T11:54:18.018Z,12.00
2023-04-23T11:55:17.961Z,16.00
2023-04-23T11:56:17.911Z,8.00
2023-04-23T11:57:17.849Z,8.00
2023-04-23T11:58:17.798Z,8.00
2023-04-23T11:59:17.749Z,8.00
2023-04-23T12:00:17.690Z,12.00
2023-04-23T12:01:17.657Z,12.00
2023-04-23T12:02:17.720Z,16.00
2023-04-23T12:03:17.650Z,16.00
2023-04-23T12:04:17.763Z,28.00
2023-04-23T12:05:17.456Z,16.00
2023-04-23T12:06:17.370Z,20.00
2023-04-23T12:07:26.256Z,16.00
2023-04-23T12:08:17.259Z,20.00
2023-04-23T12:09:17.210Z,20.00
2023-04-23T12:10:17.152Z,16.00
2023-04-23T12:11:17.109Z,20.00
2023-04-23T12:12:17.042Z,32.00
2023-04-23T12:13:16.993Z,36.00
2023-04-23T12:14:16.943Z,36.00
2023-04-23T12:15:16.883Z,32.00
2023-04-23T12:16:16.852Z,32.00
2023-04-23T12:17:16.783Z,36.00
2023-04-23T12:18:16.720Z,36.00
2023-04-23T12:19:16.713Z,36.00
2023-04-23T12:20:16.609Z,28.00
2023-04-23T12:21:16.561Z,28.00
2023-04-23T12:22:16.514Z,24.00
2023-04-23T12:23:16.468Z,32.00
2023-04-23T12:24:16.401Z,32.00
2023-04-23T12:25:16.350Z,32.00
2023-04-23T12:26:16.331Z,32.00
2023-04-23T12:27:43.841Z,32.00
2023-04-23T12:28:16.185Z,28.00
2023-04-23T12:29:16.135Z,28.00
2023-04-23T12:30:16.077Z,28.00
2023-04-23T12:31:16.089Z,24.00
2023-04-23T12:32:15.966Z,24.00
2023-04-23T12:33:15.917Z,20.00
2023-04-23T12:34:15.865Z,20.00
2023-04-23T12:35:15.818Z,16.00
2023-04-23T12:36:15.763Z,16.00
2023-04-23T12:37:15.701Z,16.00
2023-04-23T12:38:15.658Z,16.00
2023-04-23T12:39:15.599Z,20.00
2023-04-23T12:40:15.544Z,20.00
2023-04-23T12:41:15.487Z,12.00
2023-04-23T12:42:15.438Z,16.00
2023-04-23T12:43:43.360Z,20.00
2023-04-23T12:44:15.329Z,20.00
2023-04-23T12:45:15.275Z,20.00
2023-04-23T12:46:15.234Z,28.00
2023-04-23T12:47:15.194Z,28.00
2023-04-23T12:48:15.122Z,24.00
2023-04-23T12:49:15.063Z,16.00
2023-04-23T12:50:15.006Z,20.00
2023-04-23T12:51:14.953Z,20.00
2023-04-23T12:52:14.898Z,20.00
2023-04-23T12:53:14.849Z,20.00
2023-04-23T12:54:14.799Z,20.00
2023-04-23T12:55:14.741Z,24.00
2023-04-23T12:56:14.685Z,24.00
2023-04-23T12:57:14.631Z,24.00
2023-04-23T12:58:14.568Z,24.00
2023-04-23T12:59:14.525Z,24.00
2023-04-23T13:00:14.463Z,24.00
2023-04-23T13:01:14.644Z,24.00
2023-04-23T13:02:14.411Z,20.00
2023-04-23T13:03:14.369Z,24.00
2023-04-23T13:04:14.257Z,20.00
2023-04-23T13:05:14.201Z,24.00
2023-04-23T13:06:14.145Z,24.00
2023-04-23T13:07:14.090Z,24.00
2023-04-23T13:08:14.057Z,24.00
2023-04-23T13:09:13.989Z,24.00
2023-04-23T13:10:13.947Z,24.00
2023-04-23T13:11:13.896Z,24.00
2023-04-23T13:12:13.819Z,28.00
2023-04-23T13:13:13.768Z,16.00